createdAt,value
2023-05-18T00:00:54.227Z,100239.12
2023-05-18T00:03:28.579Z,100236.91
2023-05-18T00:06:07.918Z,100236.56
2023-05-18T00:08:42.040Z,100237.82
2023-05-18T00:11:15.525Z,100234.80
2023-05-18T00:13:49.805Z,100236.06
2023-05-18T00:16:23.484Z,100237.34
2023-05-18T00:18:57.521Z,100236.52
2023-05-18T00:21:33.873Z,100237.56
2023-05-18T00:24:10.985Z,100243.95
2023-05-18T00:26:45.529Z,100240.94
2023-05-18T00:29:19.395Z,100235.59
2023-05-18T00:31:53.499Z,100241.15
2023-05-18T00:34:27.964Z,100246.75
2023-05-18T00:37:01.891Z,100238.13
2023-05-18T00:39:36.196Z,100243.66
2023-05-18T00:42:10.912Z,100238.56
2023-05-18T00:44:44.950Z,100239.02
2023-05-18T00:47:21.134Z,100235.75
2023-05-18T00:49:55.220Z,100233.28
2023-05-18T00:52:30.031Z,100233.98
2023-05-18T00:55:04.614Z,100233.39
2023-05-18T00:57:38.552Z,100234.65
2023-05-18T01:00:16.296Z,100230.58
2023-05-18T01:02:51.345Z,100227.53
2023-05-18T01:05:25.437Z,100221.00
2023-05-18T01:07:59.710Z,100220.42
2023-05-18T01:10:38.636Z,100229.48
2023-05-18T01:13:20.763Z,100232.39
2023-05-18T01:16:01.056Z,100230.77
2023-05-18T01:18:45.280Z,100234.23
2023-05-18T01:21:27.240Z,100234.48
2023-05-18T01:24:16.230Z,100232.60
2023-05-18T01:26:51.854Z,100232.60
2023-05-18T01:29:28.231Z,100241.45
2023-05-18T01:32:02.420Z,100242.25
2023-05-18T01:34:35.791Z,100241.22
2023-05-18T01:37:09.505Z,100243.09
2023-05-18T01:39:43.688Z,100250.28
2023-05-18T01:42:28.188Z,100251.31
2023-05-18T01:45:09.288Z,100250.73
2023-05-18T01:47:46.833Z,100247.25
2023-05-18T01:50:24.077Z,100250.14
2023-05-18T01:53:07.991Z,100244.79
2023-05-18T01:55:42.397Z,100253.05
2023-05-18T01:58:18.386Z,100246.87
2023-05-18T02:00:52.940Z,100249.78
2023-05-18T02:03:27.007Z,100250.00
2023-05-18T02:06:01.240Z,100249.19
2023-05-18T02:08:34.858Z,100247.56
2023-05-18T02:11:08.924Z,100239.75
2023-05-18T02:13:43.242Z,100242.42
2023-05-18T02:16:17.849Z,100243.47
2023-05-18T02:18:53.270Z,100249.05
2023-05-18T02:21:27.413Z,100251.13
2023-05-18T02:24:01.306Z,100251.13
2023-05-18T02:26:35.357Z,100257.52
2023-05-18T02:29:12.092Z,100249.50
2023-05-18T02:31:45.952Z,100257.72
2023-05-18T02:34:22.174Z,100261.44
2023-05-18T02:36:58.270Z,100262.48
2023-05-18T02:39:34.056Z,100261.88
2023-05-18T02:42:09.152Z,100260.25
2023-05-18T02:44:44.140Z,100262.92
2023-05-18T02:47:20.841Z,100263.97
2023-05-18T02:49:54.651Z,100261.53
2023-05-18T02:52:27.942Z,100267.08
2023-05-18T02:55:01.815Z,100256.39
2023-05-18T02:57:49.653Z,100263.81
2023-05-18T03:00:29.727Z,100264.86
2023-05-18T03:03:03.377Z,100263.46
2023-05-18T03:05:37.644Z,100264.50
2023-05-18T03:08:11.815Z,100267.17
2023-05-18T03:10:45.910Z,100270.88
2023-05-18T03:13:19.815Z,100281.78
2023-05-18T03:15:53.765Z,100280.14
2023-05-18T03:18:27.875Z,100286.52
2023-05-18T03:21:02.399Z,100287.56
2023-05-18T03:23:36.818Z,100295.58
2023-05-18T03:26:12.707Z,100288.84
2023-05-18T03:28:47.165Z,100299.52
2023-05-18T03:31:22.588Z,100299.52
2023-05-18T03:33:57.162Z,100298.69
2023-05-18T03:36:31.261Z,100307.74
2023-05-18T03:39:06.221Z,100300.77
2023-05-18T03:41:40.621Z,100312.28
2023-05-18T03:44:14.767Z,100310.66
2023-05-18T03:46:49.569Z,100311.45
2023-05-18T03:49:23.259Z,100308.78
2023-05-18T03:51:58.130Z,100312.28
2023-05-18T03:54:33.088Z,100314.72
2023-05-18T03:57:07.867Z,100313.92
2023-05-18T03:59:41.090Z,100323.33
2023-05-18T04:02:16.900Z,100325.80
2023-05-18T04:04:54.139Z,100329.66
2023-05-18T04:07:27.673Z,100335.37
2023-05-18T04:10:01.651Z,100332.25
2023-05-18T04:12:36.103Z,100334.48
2023-05-18T04:15:14.831Z,100335.67
2023-05-18T04:17:50.852Z,100338.73
2023-05-18T04:20:28.641Z,100338.05
2023-05-18T04:23:02.076Z,100331.23
2023-05-18T04:25:35.468Z,100331.61
2023-05-18T04:28:10.012Z,100334.88
2023-05-18T04:30:46.289Z,100335.03
2023-05-18T04:33:20.706Z,100341.32
2023-05-18T04:35:59.065Z,100340.08
2023-05-18T04:38:34.761Z,100345.56
2023-05-18T04:41:09.883Z,100349.43
2023-05-18T04:43:44.306Z,100346.30
2023-05-18T04:46:18.215Z,100354.47
2023-05-18T04:48:58.129Z,100353.78
2023-05-18T04:51:32.248Z,100358.27
2023-05-18T04:54:09.369Z,100364.59
2023-05-18T04:56:44.219Z,100362.05
2023-05-18T04:59:18.374Z,100366.71
2023-05-18T05:01:52.077Z,100362.55
2023-05-18T05:04:27.070Z,100369.66
2023-05-18T05:07:01.229Z,100381.34
2023-05-18T05:09:34.777Z,100390.30
2023-05-18T05:12:12.307Z,100381.37
2023-05-18T05:14:45.518Z,100386.27
2023-05-18T05:17:19.097Z,100386.40
2023-05-18T05:19:53.373Z,100384.69
2023-05-18T05:22:26.593Z,100394.23
2023-05-18T05:25:03.359Z,100391.11
2023-05-18T05:27:38.280Z,100397.42
2023-05-18T05:30:14.932Z,100391.15
2023-05-18T05:32:50.091Z,100397.22
2023-05-18T05:35:23.649Z,100398.15
2023-05-18T05:37:57.162Z,100400.95
2023-05-18T05:40:31.022Z,100404.59
2023-05-18T05:43:06.101Z,100407.14
2023-05-18T05:45:39.971Z,100408.92
2023-05-18T05:48:15.749Z,100401.03
2023-05-18T05:50:49.361Z,100406.85
2023-05-18T05:53:23.844Z,100408.38
2023-05-18T05:55:58.529Z,100405.57
2023-05-18T05:58:31.670Z,100410.83
2023-05-18T06:01:07.646Z,100406.96
2023-05-18T06:03:41.386Z,100410.11
2023-05-18T06:06:16.617Z,100413.70
2023-05-18T06:08:50.759Z,100413.81
2023-05-18T06:11:25.347Z,100412.65
2023-05-18T06:13:59.191Z,100422.66
2023-05-18T06:16:33.501Z,100424.97
2023-05-18T06:19:08.087Z,100428.34
2023-05-18T06:21:42.036Z,100424.48
2023-05-18T06:24:16.345Z,100428.64
2023-05-18T06:27:02.210Z,100434.50
2023-05-18T06:30:12.329Z,100433.06
2023-05-18T06:33:07.904Z,100438.05
2023-05-18T06:35:43.161Z,100439.30
2023-05-18T06:38:16.341Z,100437.50
2023-05-18T06:40:50.562Z,100440.86
2023-05-18T06:43:25.644Z,100438.03
2023-05-18T06:46:05.590Z,100435.17
2023-05-18T06:48:45.997Z,100436.89
2023-05-18T06:51:19.905Z,100446.45
2023-05-18T06:53:54.397Z,100449.22
2023-05-18T06:56:29.040Z,100455.97
2023-05-18T06:59:02.800Z,100456.53
2023-05-18T07:01:37.265Z,100456.88
2023-05-18T07:04:12.199Z,100460.94
2023-05-18T07:06:46.525Z,100462.08
2023-05-18T07:09:20.450Z,100457.36
2023-05-18T07:11:54.649Z,100463.19
2023-05-18T07:14:28.672Z,100464.33
2023-05-18T07:17:02.869Z,100470.34
2023-05-18T07:19:36.975Z,100463.16
2023-05-18T07:22:10.981Z,100470.01
2023-05-18T07:24:44.601Z,100450.68
2023-05-18T07:27:18.297Z,100458.56
2023-05-18T07:29:51.764Z,100459.77
2023-05-18T07:32:26.122Z,100468.73
2023-05-18T07:35:00.054Z,100462.36
2023-05-18T07:37:33.347Z,100470.27
2023-05-18T07:40:09.989Z,100467.95
2023-05-18T07:42:45.012Z,100472.09
2023-05-18T07:45:19.149Z,100475.41
2023-05-18T07:47:53.197Z,100477.37
2023-05-18T07:50:27.151Z,100483.38
2023-05-18T07:53:00.242Z,100482.38
2023-05-18T07:55:34.073Z,100477.61
2023-05-18T07:58:07.841Z,100490.06
2023-05-18T08:00:41.136Z,100487.43
2023-05-18T08:03:15.954Z,100489.94
2023-05-18T08:05:49.576Z,100481.64
2023-05-18T08:08:22.992Z,100489.78
2023-05-18T08:10:57.073Z,100491.45
2023-05-18T08:13:32.011Z,100492.62
2023-05-18T08:16:12.243Z,100492.16
2023-05-18T08:18:47.448Z,100492.52
2023-05-18T08:21:21.297Z,100496.62
2023-05-18T08:23:55.186Z,100495.38
2023-05-18T08:26:30.745Z,100494.08
2023-05-18T08:29:09.765Z,100493.88
2023-05-18T08:31:43.982Z,100499.03
2023-05-18T08:34:18.769Z,100498.83
2023-05-18T08:36:52.781Z,100497.23
2023-05-18T08:39:26.740Z,100498.06
2023-05-18T08:42:04.802Z,100501.87
2023-05-18T08:44:42.599Z,100488.69
2023-05-18T08:47:18.457Z,100489.52
2023-05-18T08:49:53.897Z,100494.95
2023-05-18T08:52:29.777Z,100487.97
2023-05-18T08:55:08.463Z,100497.75
2023-05-18T08:57:50.441Z,100486.48
2023-05-18T09:00:25.892Z,100486.25
2023-05-18T09:02:59.876Z,100486.30
2023-05-18T09:05:34.669Z,100483.08
2023-05-18T09:08:11.277Z,100483.41
2023-05-18T09:10:45.452Z,100482.62
2023-05-18T09:13:22.698Z,100484.55
2023-05-18T09:15:58.065Z,100481.86
2023-05-18T09:18:31.898Z,100481.36
2023-05-18T09:21:06.592Z,100478.38
2023-05-18T09:23:42.276Z,100479.20
2023-05-18T09:26:16.303Z,100478.65
2023-05-18T09:28:53.459Z,100479.72
2023-05-18T09:31:27.995Z,100476.17
2023-05-18T09:34:03.603Z,100478.32
2023-05-18T09:36:37.957Z,100481.30
2023-05-18T09:39:15.040Z,100464.23
2023-05-18T09:41:56.364Z,100472.88
2023-05-18T09:44:36.807Z,100472.04
2023-05-18T09:47:12.892Z,100482.84
2023-05-18T09:49:48.208Z,100465.45
2023-05-18T09:52:21.906Z,100475.41
2023-05-18T09:55:01.578Z,100467.55
2023-05-18T09:57:40.961Z,100462.69
2023-05-18T10:00:19.311Z,100472.44
2023-05-18T10:02:53.937Z,100471.59
2023-05-18T10:05:30.233Z,100466.44
2023-05-18T10:08:04.418Z,100473.45
2023-05-18T10:10:42.878Z,100472.59
2023-05-18T10:13:21.251Z,100471.27
2023-05-18T10:15:57.188Z,100474.52
2023-05-18T10:18:32.679Z,100472.59
2023-05-18T10:21:08.494Z,100472.56
2023-05-18T10:23:46.619Z,100473.39
2023-05-18T10:26:24.287Z,100470.71
2023-05-18T10:29:00.736Z,100461.48
2023-05-18T10:31:37.435Z,100461.98
2023-05-18T10:34:12.335Z,100456.00
2023-05-18T10:36:46.234Z,100465.98
2023-05-18T10:39:21.025Z,100460.30
2023-05-18T10:42:01.112Z,100459.16
2023-05-18T10:44:37.608Z,100462.41
2023-05-18T10:47:13.047Z,100455.02
2023-05-18T10:49:50.992Z,100457.95
2023-05-18T10:52:26.659Z,100457.39
2023-05-18T10:55:02.343Z,100453.28
2023-05-18T10:57:41.280Z,100452.66
2023-05-18T11:00:18.240Z,100447.69
2023-05-18T11:02:54.114Z,100448.69
2023-05-18T11:05:31.238Z,100436.38
2023-05-18T11:08:05.980Z,100443.42
2023-05-18T11:10:43.925Z,100441.80
2023-05-18T11:13:18.293Z,100440.95
2023-05-18T11:16:11.272Z,100441.70
2023-05-18T11:18:50.185Z,100449.57
2023-05-18T11:21:32.168Z,100441.37
2023-05-18T11:24:20.940Z,100437.66
2023-05-18T11:26:56.517Z,100433.66
2023-05-18T11:29:36.492Z,100434.59
2023-05-18T11:32:30.581Z,100427.12
2023-05-18T11:35:11.494Z,100434.89
2023-05-18T11:37:54.754Z,100429.39
2023-05-18T11:40:49.066Z,100436.38
2023-05-18T11:43:27.819Z,100427.11
2023-05-18T11:46:02.161Z,100432.86
2023-05-18T11:48:36.954Z,100434.23
2023-05-18T11:51:12.003Z,100436.00
2023-05-18T11:53:44.984Z,100441.30
2023-05-18T11:56:18.988Z,100432.97
2023-05-18T11:59:16.198Z,100430.59
2023-05-18T12:01:50.374Z,100438.62
2023-05-18T12:04:25.451Z,100432.80
2023-05-18T12:07:00.987Z,100438.59
2023-05-18T12:09:36.007Z,100445.75
2023-05-18T12:12:12.145Z,100439.55
2023-05-18T12:14:48.345Z,100451.05
2023-05-18T12:17:22.250Z,100446.77
2023-05-18T12:19:55.810Z,100443.83
2023-05-18T12:22:30.108Z,100432.66
2023-05-18T12:25:04.146Z,100446.81
2023-05-18T12:27:41.263Z,100443.05
2023-05-18T12:30:18.596Z,100444.16
2023-05-18T12:32:54.700Z,100430.13
2023-05-18T12:35:29.776Z,100437.21
2023-05-18T12:38:03.366Z,100433.15
2023-05-18T12:40:45.010Z,100428.55
2023-05-18T12:43:19.015Z,100435.30
2023-05-18T12:45:52.875Z,100428.25
2023-05-18T12:48:27.645Z,100418.73
2023-05-18T12:51:01.726Z,100430.08
2023-05-18T12:53:45.687Z,100422.98
2023-05-18T12:56:21.245Z,100413.20
2023-05-18T12:59:06.100Z,100412.88
2023-05-18T13:01:46.150Z,100415.06
2023-05-18T13:04:19.907Z,100415.34
2023-05-18T13:06:59.171Z,100416.69
2023-05-18T13:09:32.814Z,100413.14
2023-05-18T13:12:08.301Z,100404.26
2023-05-18T13:14:42.637Z,100407.52
2023-05-18T13:17:25.096Z,100412.05
2023-05-18T13:20:02.083Z,100404.67
2023-05-18T13:22:36.468Z,100409.23
2023-05-18T13:25:12.053Z,100412.70
2023-05-18T13:27:48.906Z,100408.53
2023-05-18T13:30:24.423Z,100407.68
2023-05-18T13:32:59.033Z,100405.95
2023-05-18T13:35:33.167Z,100402.06
2023-05-18T13:38:07.236Z,100398.77
2023-05-18T13:40:42.456Z,100411.19
2023-05-18T13:43:16.208Z,100401.11
2023-05-18T13:45:50.447Z,100410.88
2023-05-18T13:48:24.871Z,100409.27
2023-05-18T13:50:59.202Z,100409.63
2023-05-18T13:53:32.238Z,100413.52
2023-05-18T13:56:07.068Z,100416.56
2023-05-18T13:58:41.227Z,100415.83
2023-05-18T14:01:18.019Z,100418.60
2023-05-18T14:03:51.597Z,100413.55
2023-05-18T14:06:27.438Z,100414.49
2023-05-18T14:09:00.923Z,100410.23
2023-05-18T14:11:37.073Z,100414.36
2023-05-18T14:14:10.717Z,100413.31
2023-05-18T14:16:45.287Z,100411.44
2023-05-18T14:19:18.909Z,100408.77
2023-05-18T14:21:52.898Z,100404.74
2023-05-18T14:24:26.842Z,100403.13
2023-05-18T14:27:00.963Z,100406.11
2023-05-18T14:29:36.203Z,100407.77
2023-05-18T14:32:11.883Z,100404.31
2023-05-18T14:34:45.687Z,100407.06
2023-05-18T14:37:19.562Z,100405.48
2023-05-18T14:39:53.510Z,100400.10
2023-05-18T14:42:27.445Z,100402.03
2023-05-18T14:45:02.550Z,100399.66
2023-05-18T14:47:36.232Z,100395.06
2023-05-18T14:50:12.394Z,100397.25
2023-05-18T14:52:46.126Z,100391.87
2023-05-18T14:55:20.025Z,100393.81
2023-05-18T14:57:53.873Z,100393.28
2023-05-18T15:00:28.508Z,100388.39
2023-05-18T15:03:03.793Z,100384.59
2023-05-18T15:05:37.612Z,100384.03
2023-05-18T15:08:11.006Z,100378.05
2023-05-18T15:10:45.300Z,100375.04
2023-05-18T15:13:19.262Z,100379.37
2023-05-18T15:15:52.913Z,100380.75
2023-05-18T15:18:26.837Z,100373.45
2023-05-18T15:21:00.786Z,100377.02
2023-05-18T15:23:33.831Z,100380.83
2023-05-18T15:26:09.325Z,100375.14
2023-05-18T15:28:45.125Z,100369.49
2023-05-18T15:31:19.184Z,100369.52
2023-05-18T15:33:53.160Z,100363.88
2023-05-18T15:36:27.654Z,100367.70
2023-05-18T15:39:04.730Z,100369.64
2023-05-18T15:41:39.099Z,100367.22
2023-05-18T15:44:12.811Z,100366.45
2023-05-18T15:46:46.678Z,100365.92
2023-05-18T15:49:22.080Z,100365.13
2023-05-18T15:51:56.959Z,100361.09
2023-05-18T15:54:30.730Z,100368.38
2023-05-18T15:57:04.562Z,100377.88
2023-05-18T15:59:38.688Z,100367.58
2023-05-18T16:02:12.379Z,100372.19
2023-05-18T16:04:46.578Z,100371.41
2023-05-18T16:07:21.015Z,100377.38
2023-05-18T16:09:54.617Z,100383.61
2023-05-18T16:12:28.418Z,100378.74
2023-05-18T16:15:02.786Z,100393.11
2023-05-18T16:17:36.466Z,100387.72
2023-05-18T16:20:13.717Z,100392.84
2023-05-18T16:22:48.143Z,100401.80
2023-05-18T16:25:22.390Z,100396.94
2023-05-18T16:27:56.620Z,100393.70
2023-05-18T16:30:30.755Z,100397.22
2023-05-18T16:33:06.491Z,100406.42
2023-05-18T16:35:40.256Z,100401.02
2023-05-18T16:38:15.082Z,100412.92
2023-05-18T16:40:49.315Z,100412.66
2023-05-18T16:43:23.294Z,100413.43
2023-05-18T16:45:57.209Z,100409.10
2023-05-18T16:48:31.221Z,100421.83
2023-05-18T16:51:07.055Z,100416.67
2023-05-18T16:53:40.047Z,100421.27
2023-05-18T16:56:13.964Z,100425.05
2023-05-18T16:58:52.262Z,100422.59
2023-05-18T17:01:28.801Z,100420.13
2023-05-18T17:04:03.012Z,100425.27
2023-05-18T17:06:38.045Z,100430.11
2023-05-18T17:09:12.489Z,100434.13
2023-05-18T17:11:46.210Z,100437.08
2023-05-18T17:14:20.012Z,100438.14
2023-05-18T17:16:54.467Z,100439.42
2023-05-18T17:19:28.497Z,100432.10
2023-05-18T17:22:02.888Z,100438.80
2023-05-18T17:24:36.457Z,100435.52
2023-05-18T17:27:11.606Z,100436.84
2023-05-18T17:29:46.627Z,100435.44
2023-05-18T17:32:21.016Z,100440.26
2023-05-18T17:34:54.750Z,100435.35
2023-05-18T17:37:29.300Z,100435.84
2023-05-18T17:40:02.642Z,100449.81
2023-05-18T17:42:36.738Z,100445.96
2023-05-18T17:45:13.894Z,100443.71
2023-05-18T17:47:48.293Z,100451.47
2023-05-18T17:50:22.289Z,100453.81
2023-05-18T17:52:56.238Z,100455.91
2023-05-18T17:55:30.307Z,100464.21
2023-05-18T17:58:04.723Z,100458.21
2023-05-18T18:00:39.421Z,100466.48
2023-05-18T18:03:14.771Z,100465.08
2023-05-18T18:05:49.425Z,100467.95
2023-05-18T18:08:25.329Z,100473.55
2023-05-18T18:10:59.733Z,100466.21
2023-05-18T18:13:34.045Z,100479.62
2023-05-18T18:16:10.524Z,100484.95
2023-05-18T18:18:44.120Z,100487.81
2023-05-18T18:21:18.073Z,100485.86
2023-05-18T18:23:51.202Z,100484.73
2023-05-18T18:26:26.301Z,100494.37
2023-05-18T18:28:59.726Z,100491.61
2023-05-18T18:31:33.966Z,100499.13
2023-05-18T18:34:11.343Z,100505.00
2023-05-18T18:36:45.322Z,100499.55
2023-05-18T18:39:18.713Z,100499.48
2023-05-18T18:41:52.428Z,100503.96
2023-05-18T18:44:26.746Z,100507.15
2023-05-18T18:47:00.810Z,100507.33
2023-05-18T18:49:34.757Z,100508.06
2023-05-18T18:52:11.291Z,100516.31
2023-05-18T18:54:47.483Z,100508.39
2023-05-18T18:57:22.174Z,100505.89
2023-05-18T18:59:56.724Z,100511.41
2023-05-18T19:02:30.287Z,100512.65
2023-05-18T19:05:05.808Z,100514.66
2023-05-18T19:07:40.113Z,100519.59
2023-05-18T19:10:15.027Z,100517.08
2023-05-18T19:12:48.957Z,100521.22
2023-05-18T19:15:23.259Z,100517.29
2023-05-18T19:17:57.780Z,100513.94
2023-05-18T19:20:32.174Z,100517.01
2023-05-18T19:23:06.206Z,100521.70
2023-05-18T19:25:40.839Z,100524.20
2023-05-18T19:28:14.644Z,100517.31
2023-05-18T19:30:49.778Z,100514.20
2023-05-18T19:33:24.134Z,100518.06
2023-05-18T19:35:57.668Z,100525.68
2023-05-18T19:38:31.664Z,100522.75
2023-05-18T19:41:05.925Z,100522.86
2023-05-18T19:43:40.005Z,100522.41
2023-05-18T19:46:14.231Z,100533.50
2023-05-18T19:48:48.165Z,100524.97
2023-05-18T19:51:22.454Z,100532.56
2023-05-18T19:53:55.344Z,100539.08
2023-05-18T19:56:29.263Z,100537.57
2023-05-18T19:59:03.455Z,100545.37
2023-05-18T20:01:37.270Z,100545.45
2023-05-18T20:04:11.099Z,100540.80
2023-05-18T20:06:45.882Z,100543.35
2023-05-18T20:09:20.548Z,100552.66
2023-05-18T20:11:58.005Z,100550.67
2023-05-18T20:14:33.444Z,100543.30
2023-05-18T20:17:08.070Z,100542.93
2023-05-18T20:19:50.958Z,100558.39
2023-05-18T20:22:24.801Z,100547.53
2023-05-18T20:25:01.368Z,100551.50
2023-05-18T20:27:35.372Z,100552.77
2023-05-18T20:30:12.091Z,100555.90
2023-05-18T20:32:46.263Z,100557.39
2023-05-18T20:35:21.287Z,100551.90
2023-05-18T20:37:57.753Z,100553.64
2023-05-18T20:40:32.165Z,100554.30
2023-05-18T20:43:10.138Z,100557.88
2023-05-18T20:45:45.625Z,100564.73
2023-05-18T20:48:25.112Z,100562.95
2023-05-18T20:50:58.455Z,100561.17
2023-05-18T20:53:33.898Z,100561.86
2023-05-18T20:56:08.236Z,100567.87
2023-05-18T20:58:42.965Z,100558.64
2023-05-18T21:01:16.689Z,100566.53
2023-05-18T21:03:50.332Z,100562.66
2023-05-18T21:06:23.595Z,100570.33
2023-05-18T21:08:57.140Z,100564.23
2023-05-18T21:11:31.754Z,100573.50
2023-05-18T21:14:05.770Z,100565.92
2023-05-18T21:16:39.723Z,100562.64
2023-05-18T21:19:13.295Z,100560.80
2023-05-18T21:21:47.187Z,100563.03
2023-05-18T21:24:20.583Z,100558.87
2023-05-18T21:26:54.363Z,100563.10
2023-05-18T21:29:27.931Z,100555.81
2023-05-18T21:32:02.677Z,100552.84
2023-05-18T21:34:37.030Z,100555.91
2023-05-18T21:37:11.064Z,100556.05
2023-05-18T21:39:44.918Z,100559.09
2023-05-18T21:42:19.478Z,100559.92
2023-05-18T21:44:53.070Z,100559.68
2023-05-18T21:47:27.426Z,100551.44
2023-05-18T21:50:02.215Z,100557.14
2023-05-18T21:52:35.962Z,100551.12
2023-05-18T21:55:12.552Z,100554.61
2023-05-18T21:57:47.384Z,100557.08
2023-05-18T22:00:22.945Z,100562.64
2023-05-18T22:02:56.428Z,100557.29
2023-05-18T22:05:30.299Z,100551.12
2023-05-18T22:08:04.601Z,100560.80
2023-05-18T22:10:38.903Z,100562.20
2023-05-18T22:13:12.392Z,100567.93
2023-05-18T22:15:46.583Z,100560.25
2023-05-18T22:18:21.217Z,100565.16
2023-05-18T22:20:55.140Z,100565.53
2023-05-18T22:23:29.431Z,100564.49
2023-05-18T22:26:03.057Z,100564.49
2023-05-18T22:28:36.675Z,100567.17
2023-05-18T22:31:10.153Z,100575.42
2023-05-18T22:33:44.370Z,100572.73
2023-05-18T22:36:18.384Z,100583.45
2023-05-18T22:38:52.528Z,100587.77
2023-05-18T22:41:27.419Z,100574.97
2023-05-18T22:44:01.677Z,100577.19
2023-05-18T22:46:35.185Z,100578.62
2023-05-18T22:49:09.523Z,100580.84
2023-05-18T22:51:43.243Z,100581.44
2023-05-18T22:54:16.445Z,100585.75
2023-05-18T22:56:50.874Z,100584.47
2023-05-18T22:59:24.450Z,100581.78
2023-05-18T23:01:58.498Z,100583.20
2023-05-18T23:04:32.491Z,100582.16
2023-05-18T23:07:06.905Z,100584.60
2023-05-18T23:09:40.493Z,100589.75
2023-05-18T23:12:14.783Z,100587.07
2023-05-18T23:14:50.004Z,100589.75
2023-05-18T23:17:24.392Z,100589.16
2023-05-18T23:19:58.667Z,100586.09
2023-05-18T23:22:32.770Z,100591.11
2023-05-18T23:25:09.072Z,100588.05
2023-05-18T23:27:43.478Z,100587.70
2023-05-18T23:30:18.073Z,100587.32
2023-05-18T23:32:54.795Z,100586.73
2023-05-18T23:35:31.446Z,100592.53
2023-05-18T23:38:08.839Z,100585.78
2023-05-18T23:40:43.129Z,100592.98
2023-05-18T23:43:18.387Z,100588.08
2023-05-18T23:45:54.251Z,100595.52
2023-05-18T23:48:30.168Z,100593.08
2023-05-18T23:51:07.283Z,100580.49
2023-05-18T23:53:40.706Z,100583.77
2023-05-18T23:56:16.733Z,100585.19
2023-05-18T23:58:51.496Z,100575.06
